This is the latest recevied weather packets stored in our database for station/object EFHK. If no packets are shown the sender has not sent any weather packets the latest 10 day(s).
| Time | Temp. | Humidity | Pressure | Rain* | Wind** | Luminosity | Snow |
|---|---|---|---|---|---|---|---|
| 1777700005 | 8.89° C | 70% | 1011 hPa | - | - | - | - |
| 1777699403 | 8.89° C | 70% | 1011 hPa | - | - | - | - |
| 1777698803 | 7.78° C | 75% | 1011 hPa | - | - | - | - |
| 1777698206 | 7.78° C | 75% | 1011 hPa | - | - | - | - |
| 1777697604 | 7.78° C | 75% | 1011 hPa | - | - | - | - |
| 1777697004 | 6.67° C | 81% | 1011 hPa | - | - | - | - |
| 1777696410 | 6.67° C | 81% | 1011 hPa | - | - | - | - |
| 1777695805 | 6.67° C | 81% | 1011 hPa | - | - | - | - |
| 1777695208 | 5.56° C | 81% | 1011 hPa | - | - | - | - |
| 1777694730 | 5.56° C | 81% | 1011 hPa | - | - | - | - |
| 1777694001 | 5.56° C | 81% | 1011 hPa | - | - | - | - |
| 1777693403 | 2.78° C | 93% | 1011 hPa | - | - | - | - |
| 1777692809 | 2.78° C | 93% | 1011 hPa | - | - | - | - |
| 1777692205 | 2.78° C | 93% | 1011 hPa | - | - | - | - |
| 1777691610 | 1.67° C | 93% | 1012 hPa | - | - | - | - |
| 1777691005 | 1.67° C | 93% | 1012 hPa | - | - | - | - |
| 1777690408 | 1.67° C | 93% | 1012 hPa | - | - | - | - |
| 1777689802 | 5° C | 86% | 1012 hPa | - | - | - | - |
| 1777689205 | 5° C | 86% | 1012 hPa | - | - | - | - |
| 1777688604 | 5° C | 86% | 1012 hPa | - | - | - | - |
| 1777688007 | 0.56° C | - | 1012 hPa | - | - | - | - |
| 1777687404 | 0.56° C | - | 1012 hPa | - | - | - | - |
| 1777686807 | 0.56° C | - | 1012 hPa | - | - | - | - |
| 1777686205 | 2.78° C | 93% | 1012 hPa | - | - | - | - |
| 1777685606 | 2.78° C | 93% | 1012 hPa | - | - | - | - |
* Rain since midnight (hover to see other rain measurements)
** Current wind speed in m/s (hover to see current wind gust speed)